»·PEaware :: N56FR KBUR-KLAS

N56FR :: KBUR-KLAS

FLIGHT INFORMATION

Flight Status: Arrived
Operator: Privately registered:
United States
More flights under this callsign
Pilot: Mark L. (17179)
Aircraft: BEECH AIRCRAFT BARON
(BE58)
More flights by this aircraft type
Origin: KBUR Bob Hope-Burbank
United States
Destination: KLAS McCarran Intl
United States
More flights between these airports :: More routes between these airports
Route: +VNY3 DAG CRESO4
File this flight plan on PilotEdge
Remarks: I5 RATING REQUEST
Altitude:
(Current/Filed)
11,000ft
Speed:
(Current/Filed)
150kts
Departed: 30-Jul-18 01:16 PM
Arrived: 30-Jul-18 02:41 PM
Distance/Time
Traveled:
193nm/1:24
Distance/Time
To Go:
Arrived

Flight Plot

Page will automatically refresh every two minutes.

Flight plan parsing failed; only flown route is shown


Map Options




Map Legend


Flown Route
Filed Route
Departure Airport
Arrival Airport
Navaid (VOR, NDB)
Fix

Horizontal Profiles

Position Reports

Time Latitude Longitude Heading Altitude Ground
Speed
30-Jul-18 12:35 34.200203 -118.358746 263 733ft 0kts
30-Jul-18 12:36 34.200203 -118.358746 263 733ft 0kts
30-Jul-18 12:37 34.200203 -118.358746 263 733ft 0kts
30-Jul-18 12:38 34.200203 -118.358746 263 733ft 0kts
30-Jul-18 12:39 34.200203 -118.358746 263 733ft 0kts
30-Jul-18 12:40 34.200203 -118.358746 263 733ft 0kts
30-Jul-18 12:41 34.200203 -118.358746 263 733ft 0kts
30-Jul-18 12:42 34.200203 -118.358746 263 733ft 0kts
30-Jul-18 12:43 34.200203 -118.358746 263 733ft 0kts
30-Jul-18 12:44 34.200203 -118.358746 263 733ft 0kts
30-Jul-18 12:45 34.200203 -118.358746 263 733ft 0kts
30-Jul-18 12:46 34.200203 -118.358746 263 733ft 0kts
30-Jul-18 12:47 34.200203 -118.358746 263 733ft 0kts
30-Jul-18 12:48 34.200203 -118.358746 263 733ft 0kts
30-Jul-18 12:49 34.200203 -118.358746 263 733ft 0kts
30-Jul-18 12:50 34.200203 -118.358746 263 733ft 0kts
30-Jul-18 12:51 34.200203 -118.358746 263 733ft 0kts
30-Jul-18 12:52 34.200203 -118.358746 263 733ft 0kts
30-Jul-18 12:53 34.200203 -118.358746 263 733ft 0kts
30-Jul-18 12:54 34.200203 -118.358746 263 733ft 0kts
30-Jul-18 12:55 34.200203 -118.358746 263 733ft 0kts
30-Jul-18 12:56 34.200203 -118.358746 263 733ft 0kts
30-Jul-18 12:57 34.200203 -118.358746 263 733ft 0kts
30-Jul-18 12:58 34.200203 -118.358746 263 733ft 0kts
30-Jul-18 12:59 34.200203 -118.358746 263 733ft 0kts
30-Jul-18 13:00 34.200203 -118.358746 263 733ft 0kts
30-Jul-18 13:01 34.200203 -118.358746 263 733ft 0kts
30-Jul-18 13:02 34.200203 -118.358746 263 733ft 0kts
30-Jul-18 13:03 34.200203 -118.358746 263 733ft 0kts
30-Jul-18 13:04 34.200203 -118.358746 263 733ft 0kts
30-Jul-18 13:05 34.200203 -118.358746 263 733ft 0kts
30-Jul-18 13:06 34.200203 -118.358746 263 733ft 0kts
30-Jul-18 13:07 34.200203 -118.358746 263 733ft 0kts
30-Jul-18 13:08 34.200203 -118.358746 263 733ft 0kts
30-Jul-18 13:09 34.200203 -118.358746 263 733ft 0kts
30-Jul-18 13:10 34.199281 -118.358994 176 733ft 10kts
30-Jul-18 13:11 34.199051 -118.364724 267 733ft 23kts
30-Jul-18 13:12 34.198579 -118.369116 184 733ft 0kts
30-Jul-18 13:13 34.198579 -118.369116 184 733ft 0kts
30-Jul-18 13:14 34.198579 -118.369116 184 733ft 0kts
30-Jul-18 13:15 34.198579 -118.369116 184 733ft 0kts
30-Jul-18 13:16 34.198579 -118.369116 184 733ft 0kts
30-Jul-18 13:17 34.197845 -118.363398 90 733ft 94kts
30-Jul-18 13:18 34.184721 -118.333576 184 1847ft 128kts
30-Jul-18 13:19 34.155975 -118.361986 221 2979ft 138kts
30-Jul-18 13:20 34.163564 -118.407328 309 3920ft 162kts
30-Jul-18 13:21 34.190119 -118.445858 312 5359ft 147kts
30-Jul-18 13:22 34.216679 -118.482544 309 6604ft 145kts
30-Jul-18 13:23 34.222941 -118.528475 268 7742ft 142kts
30-Jul-18 13:24 34.228624 -118.574199 324 8791ft 144kts
30-Jul-18 13:25 34.264425 -118.594048 339 9808ft 141kts
30-Jul-18 13:26 34.300656 -118.611570 357 10744ft 140kts
30-Jul-18 13:27 34.325228 -118.582071 62 11603ft 128kts
30-Jul-18 13:28 34.351688 -118.538815 40 10960ft 182kts
30-Jul-18 13:29 34.372708 -118.486957 66 11045ft 181kts
30-Jul-18 13:30 34.399514 -118.434765 55 11053ft 186kts
30-Jul-18 13:31 34.430888 -118.384440 55 11052ft 188kts
30-Jul-18 13:32 34.462327 -118.334331 55 11046ft 188kts
30-Jul-18 13:33 34.494533 -118.282997 55 10989ft 193kts
30-Jul-18 13:34 34.526595 -118.231808 55 10990ft 192kts
30-Jul-18 13:35 34.558967 -118.180027 55 10995ft 192kts
30-Jul-18 13:36 34.590780 -118.129061 55 11000ft 188kts
30-Jul-18 13:37 34.622244 -118.078613 55 11005ft 186kts
30-Jul-18 13:38 34.636101 -118.020745 83 11004ft 181kts
30-Jul-18 13:39 34.642837 -117.960073 83 11000ft 181kts
30-Jul-18 13:40 34.649441 -117.899668 83 10996ft 181kts
30-Jul-18 13:41 34.656026 -117.839075 83 10991ft 181kts
30-Jul-18 13:42 34.661484 -117.788603 83 10998ft 180kts
30-Jul-18 13:43 34.675540 -117.719427 74 11009ft 182kts
30-Jul-18 13:44 34.690593 -117.660754 74 11020ft 182kts
30-Jul-18 13:45 34.705671 -117.601881 74 11032ft 182kts
30-Jul-18 13:46 34.720731 -117.542956 74 11034ft 183kts
30-Jul-18 13:47 34.732959 -117.495013 74 11031ft 183kts
30-Jul-18 13:48 34.747990 -117.435960 74 11030ft 183kts
30-Jul-18 13:49 34.763052 -117.376651 74 11032ft 183kts
30-Jul-18 13:50 34.778011 -117.317610 74 11031ft 183kts
30-Jul-18 13:51 34.795505 -117.248405 74 11020ft 183kts
30-Jul-18 13:52 34.807968 -117.198986 74 11010ft 183kts
30-Jul-18 13:53 34.822888 -117.139700 74 10994ft 183kts
30-Jul-18 13:54 34.837652 -117.080900 74 11034ft 179kts
30-Jul-18 13:55 34.852233 -117.022693 74 11043ft 181kts
30-Jul-18 13:56 34.866903 -116.963999 74 11037ft 181kts
30-Jul-18 13:57 34.881553 -116.905256 74 11034ft 181kts
30-Jul-18 13:58 34.896227 -116.846283 74 11034ft 182kts
30-Jul-18 13:59 34.910891 -116.787215 74 11034ft 182kts
30-Jul-18 14:00 34.925534 -116.728087 73 11034ft 182kts
30-Jul-18 14:01 34.940098 -116.669146 73 11034ft 182kts
30-Jul-18 14:02 34.954673 -116.610026 73 11035ft 182kts
30-Jul-18 14:03 34.973928 -116.552569 63 11013ft 183kts
30-Jul-18 14:04 34.998135 -116.498114 62 11021ft 182kts
30-Jul-18 14:05 35.022287 -116.443725 62 11031ft 181kts
30-Jul-18 14:06 35.046206 -116.389794 62 11042ft 181kts
30-Jul-18 14:07 35.070133 -116.335784 62 11044ft 181kts
30-Jul-18 14:08 35.094117 -116.281532 62 11044ft 181kts
30-Jul-18 14:09 35.117912 -116.227635 62 11044ft 181kts
30-Jul-18 14:10 35.141842 -116.173331 62 11044ft 181kts
30-Jul-18 14:11 35.165758 -116.118978 62 11043ft 181kts
30-Jul-18 14:12 35.189620 -116.064664 62 11044ft 181kts
30-Jul-18 14:13 35.213425 -116.010397 62 11043ft 181kts
30-Jul-18 14:14 35.237324 -115.955808 62 11043ft 181kts
30-Jul-18 14:15 35.261072 -115.901492 62 11076ft 180kts
30-Jul-18 14:16 35.284904 -115.846883 62 10922ft 187kts
30-Jul-18 14:17 35.309989 -115.789366 60 10554ft 194kts
30-Jul-18 14:18 35.346092 -115.739933 48 10215ft 195kts
30-Jul-18 14:19 35.382551 -115.691383 48 10060ft 188kts
30-Jul-18 14:20 35.417431 -115.644835 48 10059ft 184kts
30-Jul-18 14:21 35.448765 -115.602884 47 10048ft 187kts
30-Jul-18 14:22 35.484457 -115.555157 47 10042ft 191kts
30-Jul-18 14:23 35.520487 -115.506878 47 10042ft 192kts
30-Jul-18 14:24 35.556610 -115.458449 47 10043ft 192kts
30-Jul-18 14:25 35.592657 -115.410000 47 10042ft 192kts
30-Jul-18 14:26 35.628813 -115.361357 47 10042ft 192kts
30-Jul-18 14:27 35.664677 -115.313013 47 10042ft 192kts
30-Jul-18 14:28 35.700732 -115.264368 47 10042ft 192kts
30-Jul-18 14:29 35.736839 -115.215584 47 10042ft 192kts
30-Jul-18 14:30 35.772855 -115.166915 45 10041ft 192kts
30-Jul-18 14:31 35.815507 -115.129479 12 9724ft 198kts
30-Jul-18 14:32 35.867431 -115.116350 11 8941ft 187kts
30-Jul-18 14:33 35.917879 -115.103660 11 8143ft 182kts
30-Jul-18 14:34 35.966993 -115.091315 11 7343ft 180kts
30-Jul-18 14:35 36.015991 -115.083895 338 6375ft 184kts
30-Jul-18 14:36 36.060322 -115.108850 331 5388ft 163kts
30-Jul-18 14:37 36.094109 -115.110454 20 3880ft 108kts
30-Jul-18 14:38 36.121862 -115.096404 21 3237ft 109kts
30-Jul-18 14:39 36.132520 -115.120386 238 2512ft 95kts
30-Jul-18 14:40 36.117001 -115.144493 218 2705ft 99kts
30-Jul-18 14:41 36.094056 -115.159575 204 2113ft 80kts
30-Jul-18 14:42 36.089325 -115.163720 287 2129ft 3kts

Navigation Log

Ident Type
Flight plan parsing failed, navigation log unavailable